Time;durP1;ratioP1;P1;durP2;ratioP2;P2;SDS_P1;SDS_P2;PMS_P1;PMS_P2;Temp;Humidity;BMP_temperature;BMP_pressure;BME280_temperature;BME280_humidity;BME280_pressure;Samples;Min_cycle;Max_cycle;Signal;HPM_P1;HPM_P2
2023/10/05 00:03:46;;;;;;;19.40;5.50;;;;;;;;;;4972957;28;20125;-53
2023/10/05 00:06:16;;;;;;;14.40;5.18;;;;;;;;;;4972022;28;20411;-53
2023/10/05 00:08:47;;;;;;;20.27;5.53;;;;;;;;;;4973503;28;20503;-53
2023/10/05 00:11:23;;;;;;;15.82;4.82;;;;;;;;;;4985197;28;20041;-54
2023/10/05 00:14:09;;;;;;;14.35;4.97;;;;;;;;;;4977165;28;20038;-54
2023/10/05 00:16:38;;;;;;;19.45;5.38;;;;;;;;;;4987807;28;20138;-53
2023/10/05 00:19:12;;;;;;;16.80;4.63;;;;;;;;;;4972181;28;20538;-54
2023/10/05 00:21:50;;;;;;;10.93;4.55;;;;;;;;;;4973319;28;20022;-54
2023/10/05 00:24:19;;;;;;;16.75;4.40;;;;;;;;;;4972132;28;20042;-52
2023/10/05 00:26:46;;;;;;;10.43;4.40;;;;;;;;;;4973187;28;20561;-52
2023/10/05 00:31:39;;;;;;;21.38;5.00;;;;;;;;;;4973582;28;20292;-52
2023/10/05 00:36:50;;;;;;;20.75;4.78;;;;;;;;;;4973191;28;20072;-50
2023/10/05 00:39:19;;;;;;;16.05;4.78;;;;;;;;;;4972391;28;20062;-55
2023/10/05 00:41:45;;;;;;;12.23;4.30;;;;;;;;;;4973135;28;20058;-55
2023/10/05 00:44:12;;;;;;;16.15;4.40;;;;;;;;;;4972248;28;20524;-54
2023/10/05 00:46:39;;;;;;;16.02;5.15;;;;;;;;;;4972976;28;20034;-55
2023/10/05 00:49:19;;;;;;;15.07;4.22;;;;;;;;;;4971971;28;20093;-54
2023/10/05 00:54:31;;;;;;;16.98;4.45;;;;;;;;;;4978450;28;20100;-53
2023/10/05 00:56:58;;;;;;;16.48;4.32;;;;;;;;;;4972169;28;20525;-52
2023/10/05 00:59:26;;;;;;;13.25;4.50;;;;;;;;;;4971344;28;20030;-52
2023/10/05 01:07:19;;;;;;;14.07;4.45;;;;;;;;;;4971618;28;20130;-53
2023/10/05 01:12:33;;;;;;;19.70;4.60;;;;;;;;;;4971729;28;20431;-54
2023/10/05 01:15:01;;;;;;;16.77;4.18;;;;;;;;;;4972710;28;20824;-54
2023/10/05 01:17:28;;;;;;;13.95;4.45;;;;;;;;;;4982694;28;20741;-54
2023/10/05 01:20:07;;;;;;;16.50;4.07;;;;;;;;;;4972740;28;20774;-54
2023/10/05 01:22:38;;;;;;;14.93;4.78;;;;;;;;;;4982794;28;20735;-52
2023/10/05 01:25:05;;;;;;;16.63;4.10;;;;;;;;;;4975355;28;20037;-51
2023/10/05 01:27:31;;;;;;;15.43;3.88;;;;;;;;;;4976611;28;20341;-52
2023/10/05 01:29:57;;;;;;;16.77;4.40;;;;;;;;;;4976439;28;20066;-52
2023/10/05 01:32:24;;;;;;;19.45;4.65;;;;;;;;;;4975352;28;20042;-50
2023/10/05 01:34:53;;;;;;;15.77;4.75;;;;;;;;;;4976895;28;21056;-53
2023/10/05 01:37:30;;;;;;;14.25;3.97;;;;;;;;;;4975803;28;20027;-51
2023/10/05 01:39:59;;;;;;;17.60;3.97;;;;;;;;;;4977079;28;20048;-52
2023/10/05 01:42:25;;;;;;;19.60;4.88;;;;;;;;;;4974585;28;20062;-53
2023/10/05 01:44:51;;;;;;;17.00;4.32;;;;;;;;;;4990052;28;20041;-55
2023/10/05 01:47:19;;;;;;;15.25;4.07;;;;;;;;;;4996384;28;20136;-55
2023/10/05 01:49:45;;;;;;;14.20;4.03;;;;;;;;;;4982072;28;20042;-54
2023/10/05 01:52:12;;;;;;;16.30;3.97;;;;;;;;;;4975396;28;20514;-53
2023/10/05 01:54:38;;;;;;;15.00;4.00;;;;;;;;;;4975585;28;20136;-52
2023/10/05 01:57:12;;;;;;;16.83;4.38;;;;;;;;;;4975107;28;20687;-55
2023/10/05 01:59:39;;;;;;;18.30;4.03;;;;;;;;;;4976308;28;20403;-56
2023/10/05 02:02:10;;;;;;;19.50;4.15;;;;;;;;;;4975395;28;20038;-55
2023/10/05 02:04:39;;;;;;;15.70;4.10;;;;;;;;;;4975653;28;20796;-55
2023/10/05 02:07:05;;;;;;;12.98;3.65;;;;;;;;;;4974966;28;20054;-55
2023/10/05 02:09:31;;;;;;;18.15;4.00;;;;;;;;;;4975490;28;20391;-55
2023/10/05 02:12:01;;;;;;;15.05;4.20;;;;;;;;;;4975793;28;20296;-54
2023/10/05 02:14:30;;;;;;;14.00;3.90;;;;;;;;;;4987384;28;20038;-55
2023/10/05 02:16:57;;;;;;;13.25;3.80;;;;;;;;;;4975064;28;20705;-54
2023/10/05 02:19:23;;;;;;;15.55;4.20;;;;;;;;;;4974633;28;20661;-54
2023/10/05 02:21:54;;;;;;;13.25;4.03;;;;;;;;;;4975577;28;20045;-54
2023/10/05 02:24:22;;;;;;;13.18;3.55;;;;;;;;;;4974324;28;20046;-54
2023/10/05 02:29:24;;;;;;;18.42;4.13;;;;;;;;;;4979616;28;20037;-54
2023/10/05 02:31:58;;;;;;;14.80;3.75;;;;;;;;;;4984194;28;20042;-54
2023/10/05 02:37:11;;;;;;;12.27;3.30;;;;;;;;;;4974007;28;20838;-53
2023/10/05 02:39:41;;;;;;;14.75;3.63;;;;;;;;;;4975447;28;20038;-55
2023/10/05 02:42:15;;;;;;;13.55;3.47;;;;;;;;;;4972463;28;20331;-53
2023/10/05 02:44:42;;;;;;;11.00;3.50;;;;;;;;;;4985938;28;20532;-54
2023/10/05 02:47:10;;;;;;;13.20;3.50;;;;;;;;;;4996128;28;20121;-54
2023/10/05 02:49:40;;;;;;;16.00;4.10;;;;;;;;;;4981446;28;20506;-55
2023/10/05 02:52:07;;;;;;;12.40;3.45;;;;;;;;;;4974235;28;20034;-53
2023/10/05 02:54:36;;;;;;;13.20;3.85;;;;;;;;;;4975162;28;20931;-54
2023/10/05 02:57:03;;;;;;;17.80;3.60;;;;;;;;;;4974947;28;20231;-53
2023/10/05 02:59:29;;;;;;;15.07;3.90;;;;;;;;;;4974539;28;20137;-55
2023/10/05 03:02:00;;;;;;;15.95;3.85;;;;;;;;;;4974964;28;20372;-53
2023/10/05 03:04:44;;;;;;;12.35;3.35;;;;;;;;;;4974202;28;20072;-55
2023/10/05 03:07:12;;;;;;;11.38;3.03;;;;;;;;;;4974299;28;20580;-55
2023/10/05 03:09:38;;;;;;;14.23;3.45;;;;;;;;;;4974750;28;20057;-53
2023/10/05 03:12:04;;;;;;;15.23;3.67;;;;;;;;;;4973396;28;20125;-56
2023/10/05 03:14:30;;;;;;;12.85;3.67;;;;;;;;;;4975334;28;20049;-52
2023/10/05 03:16:57;;;;;;;13.18;4.88;;;;;;;;;;4972906;28;20042;-54
2023/10/05 03:19:23;;;;;;;10.38;3.17;;;;;;;;;;4973845;28;20042;-51
2023/10/05 03:21:57;;;;;;;14.75;3.90;;;;;;;;;;4974024;28;20034;-53
2023/10/05 03:24:24;;;;;;;10.15;3.03;;;;;;;;;;4963341;28;20062;-53
2023/10/05 03:26:56;;;;;;;12.02;3.58;;;;;;;;;;4974230;28;20088;-52
2023/10/05 03:29:22;;;;;;;9.23;3.72;;;;;;;;;;4979061;28;20045;-51
2023/10/05 03:34:34;;;;;;;12.57;3.60;;;;;;;;;;4988243;28;20038;-49
2023/10/05 03:37:08;;;;;;;11.82;3.30;;;;;;;;;;4973934;28;20113;-54
2023/10/05 03:39:53;;;;;;;13.50;3.30;;;;;;;;;;5007239;28;20030;-52
2023/10/05 03:42:23;;;;;;;14.50;3.45;;;;;;;;;;4992518;28;20033;-52
2023/10/05 03:45:04;;;;;;;14.05;3.50;;;;;;;;;;4992245;28;20642;-51
2023/10/05 03:47:37;;;;;;;13.00;3.47;;;;;;;;;;4980223;28;20061;-53
2023/10/05 03:50:03;;;;;;;11.48;3.25;;;;;;;;;;4972386;28;20510;-53
2023/10/05 03:52:29;;;;;;;13.02;3.78;;;;;;;;;;4973616;28;20109;-53
2023/10/05 03:55:11;;;;;;;12.75;3.67;;;;;;;;;;4973166;28;20121;-54
2023/10/05 03:57:43;;;;;;;16.42;3.75;;;;;;;;;;4973180;28;20038;-52
2023/10/05 04:00:49;;;;;;;16.15;4.03;;;;;;;;;;4972425;28;20069;-52
2023/10/05 04:03:06;;;;;;;10.52;2.90;;;;;;;;;;4970801;28;20092;-52
2023/10/05 04:05:33;;;;;;;10.27;3.13;;;;;;;;;;4972998;28;20046;-53
2023/10/05 04:08:10;;;;;;;11.88;3.50;;;;;;;;;;4973498;28;20702;-53
2023/10/05 04:10:46;;;;;;;9.77;3.58;;;;;;;;;;4972877;28;20674;-54
2023/10/05 04:13:12;;;;;;;13.05;3.53;;;;;;;;;;4972555;28;20034;-52
2023/10/05 04:15:39;;;;;;;14.25;3.40;;;;;;;;;;4973178;28;20487;-54
2023/10/05 04:18:11;;;;;;;17.80;3.92;;;;;;;;;;4972752;28;20572;-55
2023/10/05 04:20:37;;;;;;;10.40;3.10;;;;;;;;;;4973150;28;20038;-52
2023/10/05 04:23:03;;;;;;;17.80;3.88;;;;;;;;;;4972196;28;20715;-53
2023/10/05 04:25:29;;;;;;;13.90;3.50;;;;;;;;;;4973971;28;20841;-55
2023/10/05 04:27:55;;;;;;;18.52;3.58;;;;;;;;;;4970770;28;20038;-56
2023/10/05 04:30:22;;;;;;;13.80;3.53;;;;;;;;;;4985969;28;20137;-55
2023/10/05 04:32:48;;;;;;;10.20;3.08;;;;;;;;;;4973268;28;20113;-55
2023/10/05 04:35:28;;;;;;;12.70;3.15;;;;;;;;;;4970675;28;20054;-54
2023/10/05 04:37:54;;;;;;;10.23;3.13;;;;;;;;;;4973766;28;20642;-54
2023/10/05 04:40:24;;;;;;;13.45;3.30;;;;;;;;;;4969667;28;20690;-55
2023/10/05 04:42:51;;;;;;;14.45;3.47;;;;;;;;;;4971307;28;20038;-56
2023/10/05 04:45:17;;;;;;;16.63;4.18;;;;;;;;;;4971379;28;20279;-53
2023/10/05 04:47:46;;;;;;;13.27;3.90;;;;;;;;;;4973028;28;20562;-53
2023/10/05 04:50:15;;;;;;;12.63;3.33;;;;;;;;;;4971714;28;20057;-52
2023/10/05 04:52:41;;;;;;;14.85;3.90;;;;;;;;;;4972691;28;20038;-55
2023/10/05 04:55:31;;;;;;;16.42;3.78;;;;;;;;;;4970076;28;20050;-53
2023/10/05 04:58:14;;;;;;;11.40;3.78;;;;;;;;;;4972994;28;20141;-52
2023/10/05 05:06:00;;;;;;;12.38;3.25;;;;;;;;;;4972783;28;20042;-55
2023/10/05 05:08:26;;;;;;;12.80;4.03;;;;;;;;;;4956752;28;20031;-54
2023/10/05 05:10:53;;;;;;;13.98;4.13;;;;;;;;;;4972556;28;20186;-53
2023/10/05 05:13:22;;;;;;;14.52;4.03;;;;;;;;;;4971435;28;20667;-55
2023/10/05 05:15:48;;;;;;;13.88;4.00;;;;;;;;;;4972573;28;20049;-52
2023/10/05 05:18:14;;;;;;;11.68;3.63;;;;;;;;;;4971455;28;20035;-54
2023/10/05 05:20:41;;;;;;;17.23;3.63;;;;;;;;;;4972836;28;20556;-54
2023/10/05 05:23:07;;;;;;;13.95;3.70;;;;;;;;;;4971430;28;20038;-55
2023/10/05 05:25:33;;;;;;;14.20;4.15;;;;;;;;;;4972995;28;20046;-55
2023/10/05 05:28:05;;;;;;;16.90;3.70;;;;;;;;;;4972449;28;20092;-52
2023/10/05 05:30:31;;;;;;;14.43;3.97;;;;;;;;;;4993446;28;20138;-55
2023/10/05 05:32:57;;;;;;;13.93;3.65;;;;;;;;;;4972391;28;20227;-55
2023/10/05 05:35:23;;;;;;;15.27;3.88;;;;;;;;;;4971498;28;20106;-54
2023/10/05 05:37:49;;;;;;;15.23;3.55;;;;;;;;;;4972583;28;20505;-55
2023/10/05 05:40:15;;;;;;;17.05;3.63;;;;;;;;;;4971087;28;20051;-57
2023/10/05 05:42:45;;;;;;;16.60;3.70;;;;;;;;;;4972170;28;20058;-52
2023/10/05 05:45:20;;;;;;;15.80;4.13;;;;;;;;;;4970561;28;20837;-54
2023/10/05 05:47:47;;;;;;;14.55;3.92;;;;;;;;;;4972717;28;20493;-56
2023/10/05 05:50:23;;;;;;;16.20;4.40;;;;;;;;;;4971616;28;20116;-55
2023/10/05 05:52:52;;;;;;;15.13;4.05;;;;;;;;;;4972247;28;20513;-57
2023/10/05 05:55:20;;;;;;;16.60;3.67;;;;;;;;;;4968878;28;20042;-54
2023/10/05 05:57:47;;;;;;;15.25;4.00;;;;;;;;;;4972092;28;20442;-54
2023/10/05 06:00:13;;;;;;;15.95;3.75;;;;;;;;;;4971378;28;20045;-56
2023/10/05 06:02:43;;;;;;;16.08;4.43;;;;;;;;;;4972553;28;20593;-55
2023/10/05 06:05:09;;;;;;;20.10;3.97;;;;;;;;;;4974852;28;20038;-53
2023/10/05 06:07:39;;;;;;;11.52;3.63;;;;;;;;;;4975385;28;20034;-54
2023/10/05 06:10:12;;;;;;;14.82;3.75;;;;;;;;;;4974920;28;20744;-55
2023/10/05 06:12:38;;;;;;;12.45;3.80;;;;;;;;;;4975931;28;20188;-55
2023/10/05 06:15:05;;;;;;;17.25;4.00;;;;;;;;;;4974772;28;20030;-55
2023/10/05 06:17:32;;;;;;;11.40;3.25;;;;;;;;;;4975393;28;20132;-55
2023/10/05 06:19:58;;;;;;;13.75;4.43;;;;;;;;;;4975222;28;20030;-56
2023/10/05 06:22:25;;;;;;;16.40;4.00;;;;;;;;;;4974405;28;20041;-55
2023/10/05 06:24:51;;;;;;;17.23;4.28;;;;;;;;;;4986076;28;20092;-54
2023/10/05 06:27:17;;;;;;;16.88;4.47;;;;;;;;;;4974643;28;20046;-54
2023/10/05 06:29:43;;;;;;;16.95;4.20;;;;;;;;;;4977132;28;20331;-54
2023/10/05 06:32:09;;;;;;;14.40;4.28;;;;;;;;;;4974452;28;20042;-54
2023/10/05 06:34:38;;;;;;;18.45;4.38;;;;;;;;;;4975328;28;20039;-53
2023/10/05 06:37:05;;;;;;;22.88;4.63;;;;;;;;;;4974129;28;20047;-56
2023/10/05 06:39:31;;;;;;;18.52;4.80;;;;;;;;;;4975041;28;20291;-55
2023/10/05 06:41:58;;;;;;;19.70;4.38;;;;;;;;;;4974949;28;20410;-54
2023/10/05 06:44:24;;;;;;;12.80;3.92;;;;;;;;;;4980119;28;20049;-53
2023/10/05 06:46:50;;;;;;;18.23;4.07;;;;;;;;;;4989152;28;20117;-55
2023/10/05 06:49:16;;;;;;;15.88;4.60;;;;;;;;;;4973423;28;20158;-52
2023/10/05 06:51:43;;;;;;;14.77;3.80;;;;;;;;;;4974409;28;20235;-53
2023/10/05 06:54:10;;;;;;;15.48;4.90;;;;;;;;;;4974005;28;20031;-53
2023/10/05 06:56:36;;;;;;;16.88;3.83;;;;;;;;;;4975150;28;20333;-55
2023/10/05 06:59:04;;;;;;;12.13;3.80;;;;;;;;;;4972836;28;20690;-50
2023/10/05 07:01:34;;;;;;;12.57;4.13;;;;;;;;;;4974657;28;21082;-51
2023/10/05 07:04:01;;;;;;;22.75;4.32;;;;;;;;;;4974750;28;20038;-53
2023/10/05 07:06:32;;;;;;;14.55;3.90;;;;;;;;;;4973979;28;20037;-53
2023/10/05 07:08:59;;;;;;;15.55;4.30;;;;;;;;;;4975275;28;20030;-52
2023/10/05 07:11:25;;;;;;;17.13;4.88;;;;;;;;;;4974404;28;20093;-52
2023/10/05 07:13:52;;;;;;;12.98;3.97;;;;;;;;;;4974754;28;20568;-53
2023/10/05 07:16:18;;;;;;;18.20;4.30;;;;;;;;;;4973848;28;20125;-53
2023/10/05 07:18:44;;;;;;;19.80;4.50;;;;;;;;;;4973062;28;20018;-52
2023/10/05 07:21:11;;;;;;;17.65;5.05;;;;;;;;;;4973624;28;20714;-51
2023/10/05 07:23:37;;;;;;;16.50;4.43;;;;;;;;;;4973994;28;20026;-53
2023/10/05 07:26:04;;;;;;;27.58;5.45;;;;;;;;;;4973148;28;20741;-54
2023/10/05 07:28:31;;;;;;;17.88;4.90;;;;;;;;;;4974415;28;20034;-54
2023/10/05 07:30:56;;;;;;;14.63;4.38;;;;;;;;;;4988973;28;20030;-53
2023/10/05 07:33:23;;;;;;;21.48;5.00;;;;;;;;;;4974339;28;20030;-51
2023/10/05 07:35:49;;;;;;;18.58;4.40;;;;;;;;;;4974152;28;20038;-51
2023/10/05 07:38:15;;;;;;;15.40;4.43;;;;;;;;;;4973684;28;20189;-52
2023/10/05 07:40:42;;;;;;;13.55;4.80;;;;;;;;;;4974570;28;20351;-53
2023/10/05 07:43:08;;;;;;;17.13;4.72;;;;;;;;;;4973088;28;20034;-53
2023/10/05 07:45:34;;;;;;;15.32;4.75;;;;;;;;;;4994147;28;20225;-51
2023/10/05 07:48:01;;;;;;;13.90;4.25;;;;;;;;;;4977881;28;20034;-50
2023/10/05 07:50:27;;;;;;;16.83;4.13;;;;;;;;;;4981571;28;20068;-51
2023/10/05 07:52:55;;;;;;;21.13;4.78;;;;;;;;;;4974014;28;20027;-53
2023/10/05 07:55:21;;;;;;;16.45;5.13;;;;;;;;;;4972721;28;20078;-51
2023/10/05 07:57:48;;;;;;;19.75;5.25;;;;;;;;;;4974005;28;20645;-52
2023/10/05 08:00:14;;;;;;;21.98;5.15;;;;;;;;;;4972365;28;20030;-52
2023/10/05 08:02:41;;;;;;;14.65;4.25;;;;;;;;;;4974507;28;20054;-53
2023/10/05 08:05:09;;;;;;;15.95;4.53;;;;;;;;;;4972976;28;20116;-52
2023/10/05 08:07:35;;;;;;;15.68;4.60;;;;;;;;;;4967549;28;20046;-54
2023/10/05 08:10:03;;;;;;;16.40;4.70;;;;;;;;;;4973469;28;20038;-52
2023/10/05 08:12:29;;;;;;;21.38;4.50;;;;;;;;;;4981172;28;20034;-53
2023/10/05 08:14:55;;;;;;;16.85;4.10;;;;;;;;;;4973734;28;20581;-51
2023/10/05 08:17:21;;;;;;;19.33;4.65;;;;;;;;;;4972545;28;20049;-54
2023/10/05 08:19:47;;;;;;;15.98;4.90;;;;;;;;;;4973968;28;20719;-54
2023/10/05 08:22:16;;;;;;;20.98;4.95;;;;;;;;;;4972301;28;20038;-51
2023/10/05 08:24:43;;;;;;;14.40;4.78;;;;;;;;;;4973861;28;20640;-51
2023/10/05 08:27:14;;;;;;;16.95;4.40;;;;;;;;;;4971888;28;20147;-53
2023/10/05 08:29:42;;;;;;;21.63;4.47;;;;;;;;;;4982560;28;20303;-54
2023/10/05 08:32:11;;;;;;;17.45;4.90;;;;;;;;;;4976679;28;20473;-53
2023/10/05 08:34:40;;;;;;;11.63;3.75;;;;;;;;;;4973493;28;20039;-52
2023/10/05 08:37:08;;;;;;;16.08;4.38;;;;;;;;;;4971600;28;20034;-53
2023/10/05 08:39:37;;;;;;;14.95;4.80;;;;;;;;;;4973828;28;20126;-53
2023/10/05 08:42:06;;;;;;;18.65;4.95;;;;;;;;;;4972079;28;20128;-52
2023/10/05 08:44:36;;;;;;;17.33;4.75;;;;;;;;;;4981566;28;20035;-51
2023/10/05 08:47:05;;;;;;;22.65;4.82;;;;;;;;;;4974359;28;20046;-53
2023/10/05 08:49:36;;;;;;;21.92;4.50;;;;;;;;;;4973371;28;20080;-50
2023/10/05 08:52:13;;;;;;;16.58;4.95;;;;;;;;;;4972070;28;20038;-49
2023/10/05 08:54:39;;;;;;;18.00;4.90;;;;;;;;;;4973080;28;20030;-50
2023/10/05 08:57:12;;;;;;;22.08;4.80;;;;;;;;;;4972676;28;20430;-52
2023/10/05 08:59:45;;;;;;;21.30;4.65;;;;;;;;;;4973348;28;20042;-51
2023/10/05 09:02:11;;;;;;;;;;;;;;;;;;4972889;28;20042;-53
2023/10/05 09:04:43;;;;;;;18.40;4.20;;;;;;;;;;4959943;28;20581;-55
2023/10/05 09:07:16;;;;;;;11.98;4.07;;;;;;;;;;4972946;28;20394;-54
2023/10/05 09:09:54;;;;;;;21.05;4.65;;;;;;;;;;4973747;28;20036;-55
2023/10/05 09:12:38;;;;;;;13.55;3.75;;;;;;;;;;4971949;28;20077;-52
2023/10/05 09:15:09;;;;;;;;;;;;;;;;;;4972182;28;20031;-52
2023/10/05 09:17:35;;;;;;;17.95;3.80;;;;;;;;;;4969886;28;20023;-52
2023/10/05 09:20:21;;;;;;;15.93;3.80;;;;;;;;;;4972629;28;20291;-55
2023/10/05 09:22:48;;;;;;;12.45;3.42;;;;;;;;;;4972472;28;20069;-53
2023/10/05 09:25:15;;;;;;;14.98;3.45;;;;;;;;;;4971774;28;20046;-54
2023/10/05 09:27:50;;;;;;;15.13;3.92;;;;;;;;;;4973163;28;20499;-54
2023/10/05 09:30:20;;;;;;;14.43;3.85;;;;;;;;;;4971781;28;20062;-53
2023/10/05 09:32:46;;;;;;;14.65;3.63;;;;;;;;;;4972754;28;20550;-54
2023/10/05 09:35:28;;;;;;;20.63;4.40;;;;;;;;;;4971519;28;20073;-52
2023/10/05 09:38:00;;;;;;;13.38;3.72;;;;;;;;;;4974312;28;20038;-54
2023/10/05 09:40:31;;;;;;;13.73;3.50;;;;;;;;;;4960751;28;20426;-53
2023/10/05 09:42:59;;;;;;;12.30;3.20;;;;;;;;;;4976190;28;20270;-54
2023/10/05 09:45:27;;;;;;;8.93;2.85;;;;;;;;;;4995450;28;20052;-54
2023/10/05 09:47:54;;;;;;;11.18;3.08;;;;;;;;;;4986801;28;20069;-53
2023/10/05 09:50:22;;;;;;;11.43;3.45;;;;;;;;;;4975663;28;20042;-53
2023/10/05 09:52:48;;;;;;;18.17;3.65;;;;;;;;;;4976783;28;20065;-53
2023/10/05 09:55:17;;;;;;;16.35;3.60;;;;;;;;;;4974930;28;20549;-54
2023/10/05 09:57:53;;;;;;;13.30;3.53;;;;;;;;;;4975766;28;20058;-54
2023/10/05 10:03:04;;;;;;;11.50;3.03;;;;;;;;;;4975225;28;20945;-53
2023/10/05 10:05:33;;;;;;;11.93;3.28;;;;;;;;;;4976159;28;20058;-53
2023/10/05 10:08:08;;;;;;;10.68;3.00;;;;;;;;;;4976497;28;20049;-53
2023/10/05 10:10:36;;;;;;;11.60;3.08;;;;;;;;;;4989961;28;20026;-53
2023/10/05 10:13:11;;;;;;;12.55;2.90;;;;;;;;;;4975098;28;20042;-55
2023/10/05 10:15:45;;;;;;;12.43;2.63;;;;;;;;;;4976233;28;20133;-53
2023/10/05 10:18:14;;;;;;;18.58;2.97;;;;;;;;;;4974767;28;20066;-54
2023/10/05 10:20:45;;;;;;;13.23;3.20;;;;;;;;;;4975250;28;20568;-54
2023/10/05 10:23:18;;;;;;;16.20;3.20;;;;;;;;;;4974694;28;20039;-54
2023/10/05 10:25:45;;;;;;;15.23;3.88;;;;;;;;;;4975825;28;20285;-53
2023/10/05 10:28:15;;;;;;;16.80;3.10;;;;;;;;;;4974028;28;20057;-55
2023/10/05 10:31:11;;;;;;;14.93;3.33;;;;;;;;;;4975725;28;20135;-56
2023/10/05 10:33:37;;;;;;;16.48;3.10;;;;;;;;;;4987216;28;20504;-53
2023/10/05 10:36:06;;;;;;;10.10;2.78;;;;;;;;;;4992981;28;20037;-54
2023/10/05 10:38:32;;;;;;;14.63;3.47;;;;;;;;;;4994779;28;20046;-54
2023/10/05 10:41:07;;;;;;;14.23;3.13;;;;;;;;;;4995165;28;20037;-53
2023/10/05 10:43:33;;;;;;;13.57;3.20;;;;;;;;;;4981552;28;20042;-53
2023/10/05 10:46:00;;;;;;;19.08;3.05;;;;;;;;;;4974932;28;20038;-53
2023/10/05 10:48:32;;;;;;;17.35;3.30;;;;;;;;;;4974592;28;20390;-54
2023/10/05 10:51:00;;;;;;;16.27;3.42;;;;;;;;;;4974007;28;20040;-53
2023/10/05 10:53:33;;;;;;;14.13;3.35;;;;;;;;;;4973935;28;20568;-54
2023/10/05 10:56:04;;;;;;;16.27;4.00;;;;;;;;;;4974986;28;20039;-54
2023/10/05 10:58:31;;;;;;;18.95;4.28;;;;;;;;;;4981459;28;20038;-55
2023/10/05 11:01:03;;;;;;;19.08;4.13;;;;;;;;;;4975377;28;20389;-53
2023/10/05 11:03:36;;;;;;;13.55;3.42;;;;;;;;;;4982146;28;20510;-54
2023/10/05 11:06:04;;;;;;;18.10;3.67;;;;;;;;;;4973917;28;20251;-51
2023/10/05 11:08:31;;;;;;;15.38;4.78;;;;;;;;;;4975760;28;20034;-54
2023/10/05 11:11:15;;;;;;;14.07;3.53;;;;;;;;;;4975486;28;20845;-52
2023/10/05 11:13:44;;;;;;;;;;;;;;;;;;4975326;28;20030;-51
2023/10/05 11:16:11;;;;;;;13.70;3.28;;;;;;;;;;4973759;28;19921;-53
2023/10/05 11:18:57;;;;;;;16.90;3.55;;;;;;;;;;4974764;28;20038;-53
2023/10/05 11:21:26;;;;;;;17.80;4.00;;;;;;;;;;4973950;28;20026;-53
2023/10/05 11:23:58;;;;;;;14.93;3.42;;;;;;;;;;4975065;28;20053;-54
2023/10/05 11:26:57;;;;;;;16.40;3.88;;;;;;;;;;4964497;28;20148;-52
2023/10/05 11:29:42;;;;;;;14.30;3.40;;;;;;;;;;4972210;28;20126;-55
2023/10/05 11:32:21;;;;;;;12.57;3.17;;;;;;;;;;4973660;28;20034;-54
2023/10/05 11:34:54;;;;;;;13.25;3.30;;;;;;;;;;4972995;28;20451;-53
2023/10/05 11:37:23;;;;;;;;;;;;;;;;;;4973688;28;20123;-54
2023/10/05 11:39:49;;;;;;;16.92;3.63;;;;;;;;;;4974580;28;19936;-53
2023/10/05 11:42:24;;;;;;;14.82;3.50;;;;;;;;;;4973534;28;20034;-54
2023/10/05 11:44:53;;;;;;;12.02;3.67;;;;;;;;;;4987709;28;20044;-54
2023/10/05 11:47:25;;;;;;;15.00;3.67;;;;;;;;;;4992199;28;20038;-50
2023/10/05 11:49:51;;;;;;;12.47;4.03;;;;;;;;;;4973650;28;20096;-53
2023/10/05 11:52:17;;;;;;;16.52;3.67;;;;;;;;;;4971084;28;20474;-51
2023/10/05 11:54:43;;;;;;;15.32;3.53;;;;;;;;;;4973073;28;20041;-53
2023/10/05 11:57:09;;;;;;;11.75;3.83;;;;;;;;;;4972825;28;20037;-55
2023/10/05 11:59:35;;;;;;;13.13;3.38;;;;;;;;;;4971990;28;20037;-53
2023/10/05 12:02:11;;;;;;;12.23;3.63;;;;;;;;;;4972077;28;20117;-51
2023/10/05 12:04:39;;;;;;;12.88;3.47;;;;;;;;;;4992664;28;20045;-52
2023/10/05 12:07:06;;;;;;;15.75;3.90;;;;;;;;;;4991884;28;20073;-55
2023/10/05 12:09:42;;;;;;;13.27;3.40;;;;;;;;;;4992985;28;20521;-52
2023/10/05 12:12:13;;;;;;;14.73;2.78;;;;;;;;;;4990260;28;20029;-52
2023/10/05 12:14:41;;;;;;;10.70;3.40;;;;;;;;;;4992588;28;20457;-55
2023/10/05 12:17:07;;;;;;;13.98;4.10;;;;;;;;;;4974576;28;20921;-54
2023/10/05 12:19:33;;;;;;;10.15;3.10;;;;;;;;;;4973374;28;20445;-53
2023/10/05 12:22:01;;;;;;;14.00;3.53;;;;;;;;;;4973431;28;20358;-54
2023/10/05 12:24:27;;;;;;;13.93;3.55;;;;;;;;;;4988620;28;20038;-53
2023/10/05 12:26:54;;;;;;;15.77;4.05;;;;;;;;;;4973815;28;20500;-53
2023/10/05 12:29:21;;;;;;;13.02;3.53;;;;;;;;;;4972510;28;20268;-51
2023/10/05 12:31:49;;;;;;;11.68;2.92;;;;;;;;;;4973546;28;20035;-54
2023/10/05 12:34:16;;;;;;;13.70;3.17;;;;;;;;;;4971728;28;20042;-55
2023/10/05 12:36:49;;;;;;;14.43;3.28;;;;;;;;;;4973681;28;20542;-54
2023/10/05 12:39:15;;;;;;;;;;;;;;;;;;4972926;28;20050;-51
2023/10/05 12:41:41;;;;;;;11.52;3.08;;;;;;;;;;4972664;28;20158;-53
2023/10/05 12:44:09;;;;;;;10.45;2.58;;;;;;;;;;4971826;28;20070;-52
2023/10/05 12:46:39;;;;;;;12.45;3.03;;;;;;;;;;4973350;28;20042;-56
2023/10/05 12:49:07;;;;;;;11.57;3.38;;;;;;;;;;4972686;28;20038;-55
2023/10/05 12:51:34;;;;;;;10.50;2.75;;;;;;;;;;4972710;28;20038;-54
2023/10/05 12:54:01;;;;;;;14.95;3.22;;;;;;;;;;4972962;28;20035;-55
2023/10/05 12:56:27;;;;;;;17.27;3.58;;;;;;;;;;4970823;28;20093;-54
2023/10/05 12:58:53;;;;;;;11.90;3.42;;;;;;;;;;4973550;28;20042;-54
2023/10/05 13:01:18;;;;;;;14.98;3.45;;;;;;;;;;4972544;28;20095;-53
2023/10/05 13:03:44;;;;;;;15.73;3.58;;;;;;;;;;4973326;28;20358;-57
2023/10/05 13:06:10;;;;;;;15.98;3.45;;;;;;;;;;4971744;28;20462;-53
2023/10/05 13:08:38;;;;;;;12.15;3.33;;;;;;;;;;4965387;28;20044;-56
2023/10/05 13:11:04;;;;;;;12.90;3.00;;;;;;;;;;4972378;28;20044;-54
2023/10/05 13:13:30;;;;;;;15.50;3.80;;;;;;;;;;4975470;28;20405;-54
2023/10/05 13:15:56;;;;;;;8.65;2.85;;;;;;;;;;4977247;28;20104;-55
2023/10/05 13:18:25;;;;;;;12.70;3.47;;;;;;;;;;4966743;28;20106;-55
2023/10/05 13:20:53;;;;;;;12.65;3.03;;;;;;;;;;4977301;28;20050;-56
2023/10/05 13:23:19;;;;;;;12.38;3.05;;;;;;;;;;4975825;28;20053;-53
2023/10/05 13:25:49;;;;;;;14.25;3.67;;;;;;;;;;4977001;28;20034;-54
2023/10/05 13:28:16;;;;;;;11.73;2.88;;;;;;;;;;4973955;28;20083;-53
2023/10/05 13:30:43;;;;;;;18.75;3.22;;;;;;;;;;4976519;28;20084;-55
2023/10/05 13:33:13;;;;;;;14.23;3.10;;;;;;;;;;4975684;28;20030;-53
2023/10/05 13:35:42;;;;;;;14.18;3.90;;;;;;;;;;4976655;28;20338;-54
2023/10/05 13:38:17;;;;;;;11.68;3.28;;;;;;;;;;4976079;28;20038;-55
2023/10/05 13:41:13;;;;;;;12.57;3.00;;;;;;;;;;4976319;28;20027;-54
2023/10/05 13:43:39;;;;;;;14.52;3.72;;;;;;;;;;4985142;28;20199;-56
2023/10/05 13:46:19;;;;;;;17.33;3.50;;;;;;;;;;5000876;28;20042;-53
2023/10/05 13:48:48;;;;;;;10.25;3.08;;;;;;;;;;4995910;28;20461;-54
2023/10/05 13:51:19;;;;;;;10.75;3.08;;;;;;;;;;4984573;28;20097;-53
2023/10/05 13:53:46;;;;;;;10.27;3.03;;;;;;;;;;4976517;28;20086;-55
2023/10/05 13:56:12;;;;;;;12.45;3.00;;;;;;;;;;4975675;28;20074;-54
2023/10/05 13:58:44;;;;;;;15.77;3.30;;;;;;;;;;4976454;28;20038;-54
2023/10/05 14:01:15;;;;;;;13.95;3.45;;;;;;;;;;4974942;28;20049;-54
2023/10/05 14:03:48;;;;;;;15.90;3.97;;;;;;;;;;4976400;28;20574;-54
2023/10/05 14:06:14;;;;;;;17.48;3.15;;;;;;;;;;4975624;28;20104;-53
2023/10/05 14:08:44;;;;;;;13.02;3.10;;;;;;;;;;4976714;28;20069;-54
2023/10/05 14:11:10;;;;;;;16.15;3.78;;;;;;;;;;4975658;28;20042;-54
2023/10/05 14:13:37;;;;;;;10.25;2.65;;;;;;;;;;4976284;28;20065;-56
2023/10/05 14:16:03;;;;;;;11.32;3.10;;;;;;;;;;4974979;28;20042;-54
2023/10/05 14:18:30;;;;;;;13.88;2.75;;;;;;;;;;4976013;28;20042;-55
2023/10/05 14:20:56;;;;;;;9.73;2.60;;;;;;;;;;4976026;28;20034;-54
2023/10/05 14:23:24;;;;;;;16.30;3.42;;;;;;;;;;4974435;28;20130;-55
2023/10/05 14:25:50;;;;;;;18.17;3.60;;;;;;;;;;4975424;28;20038;-57
2023/10/05 14:28:23;;;;;;;7.47;2.67;;;;;;;;;;4974788;28;20050;-56
2023/10/05 14:30:49;;;;;;;12.10;3.33;;;;;;;;;;4991007;28;20444;-56
2023/10/05 14:33:22;;;;;;;12.00;3.40;;;;;;;;;;4974375;28;20069;-57
2023/10/05 14:35:50;;;;;;;;;;;;;;;;;;4962776;28;20073;-57
2023/10/05 14:38:17;;;;;;;8.27;2.63;;;;;;;;;;4974158;28;20132;-54
2023/10/05 14:40:52;;;;;;;10.52;2.75;;;;;;;;;;4975815;28;20053;-56
2023/10/05 14:43:31;;;;;;;12.05;2.40;;;;;;;;;;4974014;28;20112;-57
2023/10/05 14:46:01;;;;;;;12.35;2.72;;;;;;;;;;4975125;28;20060;-54
2023/10/05 14:48:30;;;;;;;10.77;2.58;;;;;;;;;;4973796;28;20750;-57
2023/10/05 14:51:00;;;;;;;11.73;2.70;;;;;;;;;;4973933;28;20392;-57
2023/10/05 14:53:26;;;;;;;13.15;2.90;;;;;;;;;;4974344;28;20069;-57
2023/10/05 14:55:52;;;;;;;12.30;2.83;;;;;;;;;;4975644;28;20038;-57
2023/10/05 14:58:19;;;;;;;12.57;3.20;;;;;;;;;;4973778;28;20273;-54
2023/10/05 15:00:45;;;;;;;8.40;2.15;;;;;;;;;;4975216;28;20642;-58
2023/10/05 15:03:12;;;;;;;7.63;2.42;;;;;;;;;;4973683;28;20030;-57
2023/10/05 15:05:38;;;;;;;8.25;2.60;;;;;;;;;;4974893;28;20110;-57
2023/10/05 15:08:04;;;;;;;12.75;2.60;;;;;;;;;;4973793;28;20041;-57
2023/10/05 15:10:30;;;;;;;15.65;2.83;;;;;;;;;;4974973;28;20065;-56
2023/10/05 15:12:59;;;;;;;9.43;2.50;;;;;;;;;;4974849;28;20422;-57
2023/10/05 15:15:25;;;;;;;13.45;2.50;;;;;;;;;;4973817;28;20137;-58
2023/10/05 15:17:54;;;;;;;11.90;2.58;;;;;;;;;;4975193;28;20064;-56
2023/10/05 15:20:22;;;;;;;9.82;2.25;;;;;;;;;;4973420;28;20114;-53